Terminal Aerodrome Forecast
Issued by NWS

Home | Current Version | Previous Version | Text Only | Print | Product List | Glossary Off
Versions: 1 2 3 4 5 6 7 8 9 10 11 12 13 14 15 16 17 18 19 20 21 22

000
FTUS43 KPAH 280520
TAFCGI
TAF
KCGI 280520Z 2806/2906 VRB03KT 4SM BR VCSH SCT015 OVC100
     FM280900 VRB03KT 1 1/2SM -SHRA BR SCT003 OVC010
     FM281500 26006KT P6SM BKN045=

USA.gov is the U.S. government's official web portal to all federal, state and local government web resources and services.